createdAt,value
2022-10-22T00:01:13.437Z,7.40
2022-10-22T00:03:41.884Z,8.30
2022-10-22T00:06:11.885Z,7.90
2022-10-22T00:08:40.332Z,7.50
2022-10-22T00:11:17.613Z,6.40
2022-10-22T00:16:20.175Z,7.10
2022-10-22T00:18:48.546Z,7.40
2022-10-22T00:21:16.846Z,8.70
2022-10-22T00:23:45.275Z,7.30
2022-10-22T00:26:13.721Z,7.60
2022-10-22T00:28:41.950Z,8.00
2022-10-22T00:31:10.179Z,8.90
2022-10-22T00:33:38.529Z,9.10
2022-10-22T00:36:07.271Z,7.80
2022-10-22T00:38:35.465Z,8.70
2022-10-22T00:41:03.732Z,9.70
2022-10-22T00:43:31.947Z,10.00
2022-10-22T00:46:00.178Z,9.00
2022-10-22T00:48:31.622Z,7.80
2022-10-22T00:51:06.347Z,8.80
2022-10-22T00:53:41.699Z,8.30
2022-10-22T00:56:10.614Z,8.60
2022-10-22T00:58:49.434Z,8.60
2022-10-22T01:01:25.865Z,8.30
2022-10-22T01:03:55.010Z,9.00
2022-10-22T01:06:34.251Z,8.70
2022-10-22T01:09:41.811Z,8.30
2022-10-22T01:12:23.425Z,9.30
2022-10-22T01:14:51.681Z,9.20
2022-10-22T01:17:28.339Z,9.00
2022-10-22T01:19:59.485Z,9.30
2022-10-22T01:22:44.248Z,9.10
2022-10-22T01:25:37.283Z,7.90
2022-10-22T01:28:24.098Z,9.00
2022-10-22T01:30:56.519Z,8.00
2022-10-22T01:33:26.863Z,8.80
2022-10-22T01:35:55.415Z,10.10
2022-10-22T01:38:25.260Z,8.00
2022-10-22T01:40:54.633Z,8.90
2022-10-22T01:43:23.221Z,8.70
2022-10-22T01:46:04.011Z,8.60
2022-10-22T01:48:41.171Z,7.80
2022-10-22T01:51:27.867Z,8.00
2022-10-22T01:54:14.181Z,8.20
2022-10-22T01:56:50.585Z,8.10
2022-10-22T01:59:35.355Z,7.30
2022-10-22T02:02:20.891Z,7.30
2022-10-22T02:04:55.825Z,8.00
2022-10-22T02:07:30.697Z,7.20
2022-10-22T02:10:00.554Z,7.10
2022-10-22T02:12:31.765Z,8.00
2022-10-22T02:15:02.813Z,8.10
2022-10-22T02:17:35.279Z,7.60
2022-10-22T02:20:13.026Z,7.20
2022-10-22T02:22:42.102Z,8.60
2022-10-22T02:25:11.727Z,7.70
2022-10-22T02:27:43.499Z,7.80
2022-10-22T02:33:28.767Z,8.00
2022-10-22T02:35:58.674Z,8.00
2022-10-22T02:38:28.371Z,7.20
2022-10-22T02:40:56.639Z,8.80
2022-10-22T02:43:25.639Z,8.50
2022-10-22T02:45:53.841Z,7.40
2022-10-22T02:48:22.091Z,7.40
2022-10-22T02:50:50.347Z,8.20
2022-10-22T02:53:18.501Z,8.10
2022-10-22T02:55:46.782Z,8.60
2022-10-22T02:58:15.039Z,7.80
2022-10-22T03:00:43.317Z,7.70
2022-10-22T03:03:11.611Z,7.70
2022-10-22T03:05:39.834Z,7.80
2022-10-22T03:08:08.122Z,7.80
2022-10-22T03:10:36.621Z,8.10
2022-10-22T03:13:04.790Z,8.00
2022-10-22T03:15:32.996Z,9.30
2022-10-22T03:18:01.336Z,8.00
2022-10-22T03:20:29.519Z,9.20
2022-10-22T03:22:57.959Z,8.90
2022-10-22T03:25:28.307Z,7.90
2022-10-22T03:28:03.173Z,7.90
2022-10-22T03:30:31.780Z,8.40
2022-10-22T03:32:59.930Z,8.80
2022-10-22T03:35:28.321Z,9.20
2022-10-22T03:37:56.619Z,8.40
2022-10-22T03:40:24.845Z,8.30
2022-10-22T03:42:53.140Z,8.90
2022-10-22T03:45:21.364Z,9.20
2022-10-22T03:47:49.553Z,11.60
2022-10-22T03:50:17.964Z,9.30
2022-10-22T03:52:46.217Z,8.90
2022-10-22T03:55:14.360Z,9.40
2022-10-22T03:57:42.712Z,8.00
2022-10-22T04:00:11.395Z,10.70
2022-10-22T04:02:39.650Z,8.80
2022-10-22T04:05:08.260Z,8.30
2022-10-22T04:07:36.795Z,9.60
2022-10-22T04:10:05.454Z,8.30
2022-10-22T04:12:33.741Z,8.90
2022-10-22T04:15:02.055Z,8.60
2022-10-22T04:17:35.377Z,8.90
2022-10-22T04:20:04.480Z,8.70
2022-10-22T04:22:36.867Z,9.10
2022-10-22T04:25:05.699Z,9.50
2022-10-22T04:27:35.056Z,9.40
2022-10-22T04:30:05.148Z,8.80
2022-10-22T04:32:33.419Z,9.70
2022-10-22T04:35:01.722Z,10.00
2022-10-22T04:37:30.002Z,10.80
2022-10-22T04:39:58.498Z,9.40
2022-10-22T04:42:26.759Z,10.50
2022-10-22T04:44:54.975Z,9.40
2022-10-22T04:47:23.210Z,8.50
2022-10-22T04:49:51.379Z,8.90
2022-10-22T04:52:20.560Z,9.90
2022-10-22T04:54:48.792Z,9.50
2022-10-22T04:57:17.064Z,10.00
2022-10-22T04:59:45.261Z,9.70
2022-10-22T05:02:13.544Z,8.50
2022-10-22T05:04:44.515Z,8.80
2022-10-22T05:07:12.723Z,8.70
2022-10-22T05:09:41.322Z,9.00
2022-10-22T05:12:09.692Z,10.80
2022-10-22T05:14:41.290Z,9.60
2022-10-22T05:17:10.877Z,8.60
2022-10-22T05:19:39.129Z,9.30
2022-10-22T05:22:07.319Z,9.60
2022-10-22T05:24:37.247Z,9.50
2022-10-22T05:27:05.515Z,9.50
2022-10-22T05:29:34.018Z,8.40
2022-10-22T05:32:02.306Z,9.20
2022-10-22T05:34:30.944Z,9.80
2022-10-22T05:36:59.256Z,8.80
2022-10-22T05:39:30.658Z,8.90
2022-10-22T05:41:58.887Z,9.50
2022-10-22T05:44:27.055Z,9.30
2022-10-22T05:46:55.266Z,10.30
2022-10-22T05:49:23.549Z,10.10
2022-10-22T05:51:51.808Z,9.10
2022-10-22T05:54:23.647Z,9.80
2022-10-22T05:56:51.985Z,9.30
2022-10-22T05:59:20.187Z,9.50
2022-10-22T06:01:48.543Z,9.90
2022-10-22T06:04:18.063Z,10.20
2022-10-22T06:06:49.092Z,9.00
2022-10-22T06:09:19.958Z,9.20
2022-10-22T06:11:48.515Z,9.80
2022-10-22T06:14:18.004Z,9.90
2022-10-22T06:16:46.569Z,9.40
2022-10-22T06:19:16.844Z,9.10
2022-10-22T06:21:45.557Z,9.10
2022-10-22T06:24:14.628Z,9.60
2022-10-22T06:26:43.049Z,10.10
2022-10-22T06:29:16.687Z,11.60
2022-10-22T06:31:45.044Z,10.60
2022-10-22T06:35:07.421Z,11.50
2022-10-22T06:37:35.669Z,9.80
2022-10-22T06:40:04.248Z,10.70
2022-10-22T06:42:32.467Z,10.00
2022-10-22T06:47:33.897Z,11.60
2022-10-22T06:50:02.202Z,12.80
2022-10-22T06:52:30.572Z,12.40
2022-10-22T06:54:59.791Z,11.60
2022-10-22T06:57:28.118Z,12.40
2022-10-22T06:59:56.352Z,11.80
2022-10-22T07:02:24.630Z,11.30
2022-10-22T07:04:52.971Z,11.70
2022-10-22T07:07:21.258Z,12.80
2022-10-22T07:09:51.355Z,12.30
2022-10-22T07:12:19.853Z,12.00
2022-10-22T07:14:50.053Z,12.20
2022-10-22T07:17:18.232Z,11.90
2022-10-22T07:19:49.684Z,12.40
2022-10-22T07:26:53.761Z,12.10
2022-10-22T07:29:21.955Z,10.80
2022-10-22T07:31:50.267Z,11.40
2022-10-22T07:34:21.529Z,13.90
2022-10-22T07:36:49.764Z,13.70
2022-10-22T07:39:18.059Z,13.70
2022-10-22T07:41:46.209Z,12.70
2022-10-22T07:44:15.486Z,11.20
2022-10-22T07:46:48.032Z,14.20
2022-10-22T07:49:17.231Z,10.90
2022-10-22T07:51:45.492Z,11.00
2022-10-22T07:54:13.727Z,10.90
2022-10-22T07:56:41.896Z,12.50
2022-10-22T07:59:10.239Z,12.50
2022-10-22T08:01:38.469Z,10.30
2022-10-22T08:04:08.443Z,12.90
2022-10-22T08:06:36.946Z,10.50
2022-10-22T08:09:05.479Z,11.10
2022-10-22T08:11:33.879Z,13.50
2022-10-22T08:14:02.258Z,13.20
2022-10-22T08:16:30.561Z,13.00
2022-10-22T08:18:59.399Z,13.20
2022-10-22T08:21:27.749Z,12.80
2022-10-22T08:24:22.570Z,14.40
2022-10-22T08:26:51.128Z,15.10
2022-10-22T08:29:46.372Z,16.90
2022-10-22T08:32:14.783Z,14.60
2022-10-22T08:34:43.020Z,15.70
2022-10-22T08:37:36.670Z,13.80
2022-10-22T08:40:05.925Z,13.80
2022-10-22T08:42:43.415Z,15.00
2022-10-22T08:45:56.570Z,18.00
2022-10-22T08:48:46.296Z,17.60
2022-10-22T08:51:28.503Z,14.70
2022-10-22T08:54:14.823Z,13.60
2022-10-22T08:56:48.011Z,13.40
2022-10-22T08:59:37.979Z,14.00
2022-10-22T09:02:30.483Z,13.30
2022-10-22T09:05:16.171Z,12.10
2022-10-22T09:07:50.122Z,12.00
2022-10-22T09:10:21.941Z,12.90
2022-10-22T09:12:50.881Z,12.30
2022-10-22T09:15:20.214Z,13.10
2022-10-22T09:18:06.583Z,11.80
2022-10-22T09:20:41.588Z,12.00
2022-10-22T09:23:49.176Z,12.30
2022-10-22T09:26:17.671Z,13.30
2022-10-22T09:28:50.941Z,13.30
2022-10-22T09:31:19.252Z,13.30
2022-10-22T09:33:49.173Z,13.10
2022-10-22T09:36:21.509Z,12.70
2022-10-22T09:38:52.736Z,12.30
2022-10-22T09:41:26.100Z,13.10
2022-10-22T09:43:54.462Z,12.70
2022-10-22T09:46:25.314Z,13.30
2022-10-22T09:49:10.163Z,14.90
2022-10-22T09:51:53.710Z,13.10
2022-10-22T09:54:33.127Z,13.40
2022-10-22T09:57:10.078Z,10.30
2022-10-22T09:59:41.323Z,10.40
2022-10-22T10:02:19.949Z,9.60
2022-10-22T10:04:57.994Z,9.10
2022-10-22T10:07:31.295Z,8.80
2022-10-22T10:09:59.545Z,8.90
2022-10-22T10:15:36.694Z,14.60
2022-10-22T10:18:23.289Z,11.00
2022-10-22T10:20:58.094Z,10.90
2022-10-22T10:23:35.979Z,10.50
2022-10-22T10:26:19.361Z,14.90
2022-10-22T10:28:50.648Z,14.60
2022-10-22T10:31:46.120Z,13.30
2022-10-22T10:34:23.195Z,8.70
2022-10-22T10:37:14.105Z,8.60
2022-10-22T10:40:07.432Z,9.40
2022-10-22T10:42:43.976Z,8.00
2022-10-22T10:45:18.207Z,9.10
2022-10-22T10:48:12.859Z,9.20
2022-10-22T10:51:37.127Z,9.80
2022-10-22T10:54:26.564Z,9.90
2022-10-22T10:57:03.339Z,9.80
2022-10-22T10:59:49.645Z,9.60
2022-10-22T11:02:26.879Z,11.00
2022-10-22T11:05:15.926Z,10.30
2022-10-22T11:07:55.774Z,9.90
2022-10-22T11:10:27.464Z,10.10
2022-10-22T11:13:03.553Z,11.40
2022-10-22T11:15:37.735Z,11.60
2022-10-22T11:18:24.248Z,11.60
2022-10-22T11:21:21.398Z,13.40
2022-10-22T11:24:04.011Z,13.10
2022-10-22T11:26:49.181Z,14.00
2022-10-22T11:29:23.155Z,16.70
2022-10-22T11:31:54.731Z,15.60
2022-10-22T11:34:34.719Z,13.70
2022-10-22T11:37:05.004Z,16.40
2022-10-22T11:39:42.816Z,18.00
2022-10-22T11:42:18.487Z,18.60
2022-10-22T11:45:04.066Z,20.60
2022-10-22T11:47:35.889Z,21.30
2022-10-22T11:50:19.442Z,20.50
2022-10-22T11:53:06.039Z,19.30
2022-10-22T11:55:45.838Z,20.00
2022-10-22T11:58:29.618Z,21.40
2022-10-22T12:01:09.681Z,20.80
2022-10-22T12:03:44.005Z,22.30
2022-10-22T12:06:15.938Z,21.30
2022-10-22T12:08:53.408Z,23.60
2022-10-22T12:11:25.681Z,24.40
2022-10-22T12:14:00.341Z,24.50
2022-10-22T12:19:46.645Z,23.00
2022-10-22T12:22:21.243Z,22.40
2022-10-22T12:24:51.940Z,23.10
2022-10-22T12:27:26.545Z,24.10
2022-10-22T12:29:59.858Z,24.70
2022-10-22T12:32:37.162Z,24.90
2022-10-22T12:35:11.822Z,25.10
2022-10-22T12:37:40.516Z,26.50
2022-10-22T12:40:21.217Z,24.90
2022-10-22T12:42:53.433Z,25.60
2022-10-22T12:45:22.561Z,25.30
2022-10-22T12:47:55.643Z,27.00
2022-10-22T12:50:38.330Z,25.50
2022-10-22T12:53:13.289Z,26.10
2022-10-22T12:55:42.152Z,28.60
2022-10-22T12:58:17.873Z,27.30
2022-10-22T13:00:47.889Z,26.30
2022-10-22T13:03:32.685Z,21.20
2022-10-22T13:06:13.119Z,20.80
2022-10-22T13:08:41.422Z,24.70
2022-10-22T13:11:11.886Z,26.70
2022-10-22T13:13:40.064Z,27.50
2022-10-22T13:16:21.664Z,26.10
2022-10-22T13:18:51.618Z,26.30
2022-10-22T13:21:38.117Z,24.10
2022-10-22T13:24:24.430Z,24.10
2022-10-22T13:26:54.990Z,25.40
2022-10-22T13:29:24.653Z,29.50
2022-10-22T13:31:54.177Z,29.60
2022-10-22T13:34:25.187Z,27.50
2022-10-22T13:36:53.695Z,26.40
2022-10-22T13:39:23.979Z,26.50
2022-10-22T13:41:52.391Z,26.60
2022-10-22T13:44:20.661Z,26.10
2022-10-22T13:46:49.131Z,29.70
2022-10-22T13:49:19.975Z,26.90
2022-10-22T13:51:48.308Z,26.40
2022-10-22T13:54:19.855Z,25.60
2022-10-22T13:56:48.162Z,25.70
2022-10-22T13:59:18.512Z,24.90
2022-10-22T14:01:49.703Z,24.30
2022-10-22T14:04:17.995Z,23.60
2022-10-22T14:06:46.263Z,25.00
2022-10-22T14:09:16.156Z,24.10
2022-10-22T14:11:44.542Z,23.30
2022-10-22T14:14:14.426Z,25.90
2022-10-22T14:16:42.835Z,25.90
2022-10-22T14:19:16.640Z,25.70
2022-10-22T14:21:44.980Z,26.00
2022-10-22T14:24:13.625Z,28.70
2022-10-22T14:26:42.111Z,29.00
2022-10-22T14:29:11.384Z,27.70
2022-10-22T14:31:43.315Z,24.60
2022-10-22T14:34:15.060Z,24.40
2022-10-22T14:36:46.178Z,24.50
2022-10-22T14:39:14.511Z,23.90
2022-10-22T14:41:43.064Z,25.60
2022-10-22T14:44:14.867Z,26.70
2022-10-22T14:46:44.415Z,27.10
2022-10-22T14:49:13.151Z,30.80
2022-10-22T14:51:41.987Z,31.00
2022-10-22T14:54:10.582Z,33.70
2022-10-22T14:56:38.827Z,31.60
2022-10-22T14:59:06.998Z,31.00
2022-10-22T15:01:35.406Z,32.20
2022-10-22T15:04:03.690Z,35.40
2022-10-22T15:06:31.901Z,36.10
2022-10-22T15:09:00.171Z,38.60
2022-10-22T15:11:28.521Z,41.80
2022-10-22T15:13:56.718Z,41.30
2022-10-22T15:16:24.995Z,37.30
2022-10-22T15:18:57.252Z,36.70
2022-10-22T15:21:25.713Z,32.50
2022-10-22T15:23:53.929Z,32.10
2022-10-22T15:26:22.310Z,32.30
2022-10-22T15:28:50.630Z,32.10
2022-10-22T15:32:05.095Z,35.30
2022-10-22T15:34:35.722Z,31.60
2022-10-22T15:37:06.392Z,33.30
2022-10-22T15:39:34.842Z,37.50
2022-10-22T15:42:03.025Z,39.90
2022-10-22T15:44:32.032Z,39.10
2022-10-22T15:47:03.358Z,41.50
2022-10-22T15:49:31.581Z,42.10
2022-10-22T15:51:59.882Z,48.70
2022-10-22T15:54:30.159Z,62.80
2022-10-22T15:57:02.361Z,67.20
2022-10-22T15:59:30.903Z,64.00
2022-10-22T16:01:59.051Z,59.60
2022-10-22T16:04:27.262Z,64.40
2022-10-22T16:06:57.948Z,56.80
2022-10-22T16:09:27.712Z,52.40
2022-10-22T16:11:56.511Z,50.20
2022-10-22T16:14:25.388Z,51.80
2022-10-22T16:16:55.591Z,48.30
2022-10-22T16:19:24.638Z,48.00
2022-10-22T16:21:55.125Z,47.40
2022-10-22T16:24:23.642Z,50.80
2022-10-22T16:26:53.321Z,54.60
2022-10-22T16:29:21.503Z,51.30
2022-10-22T16:31:49.758Z,48.60
2022-10-22T16:34:18.051Z,47.70
2022-10-22T16:36:46.464Z,47.60
2022-10-22T16:39:14.718Z,45.20
2022-10-22T16:41:42.964Z,47.40
2022-10-22T16:44:12.479Z,45.40
2022-10-22T16:46:40.925Z,45.60
2022-10-22T16:49:09.148Z,46.00
2022-10-22T16:51:37.315Z,48.00
2022-10-22T16:54:08.290Z,50.10
2022-10-22T16:56:40.078Z,48.00
2022-10-22T16:59:08.816Z,53.50
2022-10-22T17:01:40.909Z,54.40
2022-10-22T17:04:10.282Z,58.00
2022-10-22T17:06:38.711Z,55.40
2022-10-22T17:09:07.132Z,56.90
2022-10-22T17:11:37.057Z,62.20
2022-10-22T17:14:07.334Z,62.30
2022-10-22T17:16:35.675Z,57.60
2022-10-22T17:19:05.088Z,52.90
2022-10-22T17:21:34.184Z,52.30
2022-10-22T17:24:02.601Z,51.00
2022-10-22T17:26:33.302Z,50.50
2022-10-22T17:29:05.249Z,52.90
2022-10-22T17:31:37.552Z,50.10
2022-10-22T17:34:10.341Z,53.50
2022-10-22T17:36:38.782Z,50.60
2022-10-22T17:39:08.596Z,56.40
2022-10-22T17:41:44.205Z,57.80
2022-10-22T17:44:17.241Z,56.70
2022-10-22T17:49:21.542Z,54.90
2022-10-22T17:51:50.198Z,53.60
2022-10-22T17:54:18.452Z,51.90
2022-10-22T17:56:46.675Z,53.40
2022-10-22T17:59:16.302Z,51.20
2022-10-22T18:01:45.961Z,51.90
2022-10-22T18:04:17.164Z,50.70
2022-10-22T18:06:51.755Z,56.70
2022-10-22T18:09:23.105Z,66.60
2022-10-22T18:11:53.903Z,67.90
2022-10-22T18:14:23.870Z,123.90
2022-10-22T18:16:55.791Z,99.70
2022-10-22T18:19:27.237Z,69.60
2022-10-22T18:22:20.420Z,64.50
2022-10-22T18:24:48.604Z,60.20
2022-10-22T18:27:16.901Z,68.30
2022-10-22T18:29:45.077Z,63.90
2022-10-22T18:32:13.410Z,60.30
2022-10-22T18:34:41.634Z,62.20
2022-10-22T18:37:09.961Z,62.70
2022-10-22T18:39:38.249Z,62.10
2022-10-22T18:42:07.256Z,56.40
2022-10-22T18:44:36.371Z,57.30
2022-10-22T18:47:04.806Z,48.60
2022-10-22T18:49:33.843Z,44.20
2022-10-22T18:52:05.126Z,40.50
2022-10-22T18:54:35.541Z,38.90
2022-10-22T18:57:03.974Z,36.70
2022-10-22T18:59:32.423Z,34.90
2022-10-22T19:02:00.781Z,33.70
2022-10-22T19:04:38.500Z,34.10
2022-10-22T19:07:12.915Z,32.40
2022-10-22T19:09:44.323Z,32.30
2022-10-22T19:12:15.408Z,32.90
2022-10-22T19:14:43.865Z,33.40
2022-10-22T19:17:12.357Z,33.30
2022-10-22T19:19:43.219Z,34.00
2022-10-22T19:22:11.506Z,35.80
2022-10-22T19:24:40.191Z,35.70
2022-10-22T19:27:08.689Z,35.50
2022-10-22T19:29:36.959Z,38.50
2022-10-22T19:32:05.624Z,42.00
2022-10-22T19:34:33.873Z,41.60
2022-10-22T19:37:02.299Z,41.80
2022-10-22T19:39:30.649Z,39.60
2022-10-22T19:41:59.867Z,42.40
2022-10-22T19:44:28.198Z,39.80
2022-10-22T19:46:56.454Z,41.90
2022-10-22T19:49:24.784Z,41.50
2022-10-22T19:51:59.063Z,40.30
2022-10-22T19:54:27.303Z,41.70
2022-10-22T19:56:55.765Z,40.60
2022-10-22T19:59:27.263Z,39.10
2022-10-22T20:02:26.200Z,39.00
2022-10-22T20:04:54.398Z,37.90
2022-10-22T20:07:22.874Z,37.80
2022-10-22T20:09:51.230Z,38.90
2022-10-22T20:12:19.498Z,38.10
2022-10-22T20:14:47.891Z,41.60
2022-10-22T20:17:19.844Z,37.30
2022-10-22T20:19:49.347Z,39.20
2022-10-22T20:22:18.940Z,40.10
2022-10-22T20:24:47.194Z,37.40
2022-10-22T20:27:15.475Z,34.70
2022-10-22T20:29:43.682Z,32.90
2022-10-22T20:32:12.489Z,32.00
2022-10-22T20:34:43.452Z,32.20
2022-10-22T20:37:11.911Z,29.20
2022-10-22T20:39:40.144Z,29.30
2022-10-22T20:42:08.510Z,29.30
2022-10-22T20:44:36.784Z,29.10
2022-10-22T20:47:05.116Z,28.60
2022-10-22T20:49:33.396Z,26.50
2022-10-22T20:52:02.139Z,29.40
2022-10-22T20:54:30.429Z,28.20
2022-10-22T20:56:59.270Z,30.70
2022-10-22T20:59:33.192Z,32.70
2022-10-22T21:02:02.302Z,29.60
2022-10-22T21:04:30.986Z,32.00
2022-10-22T21:06:59.185Z,30.80
2022-10-22T21:09:28.090Z,31.30
2022-10-22T21:11:58.206Z,32.30
2022-10-22T21:14:26.415Z,31.80
2022-10-22T21:16:54.653Z,31.50
2022-10-22T21:19:23.447Z,30.80
2022-10-22T21:21:52.218Z,31.70
2022-10-22T21:24:24.759Z,30.20
2022-10-22T21:26:54.257Z,30.20
2022-10-22T21:29:22.977Z,30.80
2022-10-22T21:31:52.616Z,33.00
2022-10-22T21:34:21.392Z,29.30
2022-10-22T21:36:49.965Z,29.50
2022-10-22T21:39:18.306Z,27.10
2022-10-22T21:41:46.517Z,30.20
2022-10-22T21:44:14.859Z,32.30
2022-10-22T21:46:43.157Z,34.50
2022-10-22T21:49:12.344Z,32.40
2022-10-22T21:51:43.393Z,32.30
2022-10-22T21:54:12.795Z,34.30
2022-10-22T21:56:41.670Z,33.50
2022-10-22T21:59:09.906Z,32.90
2022-10-22T22:01:38.206Z,35.20
2022-10-22T22:04:06.818Z,31.00
2022-10-22T22:06:35.331Z,33.80
2022-10-22T22:09:04.653Z,33.50
2022-10-22T22:11:33.550Z,31.90
2022-10-22T22:14:02.812Z,32.10
2022-10-22T22:16:33.319Z,33.30
2022-10-22T22:19:05.481Z,32.80
2022-10-22T22:21:35.691Z,32.40
2022-10-22T22:24:04.283Z,31.70
2022-10-22T22:26:32.578Z,32.90
2022-10-22T22:29:01.542Z,33.00
2022-10-22T22:31:32.156Z,31.70
2022-10-22T22:34:06.381Z,32.10
2022-10-22T22:36:37.621Z,31.70
2022-10-22T22:39:08.581Z,30.90
2022-10-22T22:41:36.874Z,31.10
2022-10-22T22:44:05.861Z,31.70
2022-10-22T22:46:34.410Z,31.20
2022-10-22T22:49:13.894Z,31.90
2022-10-22T22:51:43.554Z,31.60
2022-10-22T22:54:12.198Z,29.70
2022-10-22T22:56:41.056Z,31.30
2022-10-22T22:59:11.168Z,29.80
2022-10-22T23:01:39.577Z,29.10
2022-10-22T23:04:13.983Z,32.40
2022-10-22T23:06:43.022Z,29.50
2022-10-22T23:09:13.614Z,28.70
2022-10-22T23:11:43.340Z,27.10
2022-10-22T23:14:15.571Z,29.10
2022-10-22T23:16:46.818Z,28.60
2022-10-22T23:19:18.041Z,28.50
2022-10-22T23:21:49.151Z,27.50
2022-10-22T23:24:25.968Z,28.30
2022-10-22T23:26:55.874Z,27.70
2022-10-22T23:29:29.897Z,29.00
2022-10-22T23:32:02.660Z,28.00
2022-10-22T23:34:31.826Z,27.30
2022-10-22T23:37:03.626Z,27.40
2022-10-22T23:39:31.938Z,26.70
2022-10-22T23:42:00.156Z,26.60
2022-10-22T23:44:28.558Z,25.70
2022-10-22T23:46:56.749Z,25.60
2022-10-22T23:49:25.070Z,25.90
2022-10-22T23:51:53.282Z,24.40
2022-10-22T23:54:21.586Z,24.90
2022-10-22T23:56:49.810Z,24.40
2022-10-22T23:59:20.172Z,23.40
